Weather observations for the past three days for
St. Mary's, St. Mary's Airport
Metric (Imperial)
Date Time (akdt) Wind (kph) Vis. (km) Weather Sky Cond. Temperature (ºC) Relative Humidity Wind Chill (°C) Heat Index (°C) Pressure Precipitation (cm)
Air Dwpt 6 hour altimeter (cm) sea level (mb) 1 hr 3 hr 6 hr
Max. Min.
04 14:56 N 37 G 46 16.09 Overcast and Breezy OVC023 0.6 -5 66% -6 76.1 1015.6
04 13:56 N 37 G 48 16.09 Overcast and Breezy OVC023 0 -5 69% -7 76.17 1016.4
04 12:56 N 35 16.09 Overcast and Breezy OVC025 0 -4.4 73% -7 76.2 1016.9
04 11:56 N 35 G 43 16.09 Overcast and Breezy OVC025 0 -5.6 66% -7 76.25 1017.6
04 10:56 N 33 G 41 16.09 Mostly Cloudy and Breezy BKN025 0 -5.6 66% -6 76.28 1018.1
04 09:56 N 24 16.09 Mostly Cloudy SCT016 BKN028 -0.6 -3.9 -0.6 -5.6 79% -6 76.33 1018.6
04 08:56 N 20 16.09 A Few Clouds FEW022 -1.7 -5 78% -7 76.35 1018.9
04 07:56 N 17 16.09 Overcast OVC020 -2.2 -5 81% -7 76.38 1019.4
04 06:56 N 15 16.09 Overcast OVC018 -2.8 -4.4 89% -7 76.4 1019.6
04 05:56 NW 11 16.09 Overcast OVC020 -3.9 -3.9 100% -8 76.43 1019.8
04 03:56 NW 11 16.09 Fair CLR -5 -5.6 0 -5 96% -9 76.48 1020.5
04 02:56 NW 11 16.09 Mostly Cloudy BKN010 -4.4 -5 96% -8 76.48 1020.7
04 01:56 NW 11 16.09 Partly Cloudy SCT010 -4.4 -5 96% -8 76.5 1021.0
04 00:56 NW 15 16.09 A Few Clouds FEW010 -3.3 -3.9 96% -8 76.53 1021.2
03 23:56 NW 9 16.09 Fair CLR -2.8 -5.6 81% -6 76.53 1021.1
03 22:56 N 11 16.09 Fair CLR -1.1 -5 75% -5 76.5 1020.9
03 21:56 NW 13 16.09 A Few Clouds FEW025 -0.6 -5 0.6 -0.6 72% -4 76.5 1020.9
03 20:56 NW 20 16.09 Overcast OVC023 0 -3.9 75% -5 76.5 1021.1
03 19:56 NW 17 16.09 Overcast OVC021 0 -4.4 73% -4 76.53 1021.2
03 18:56 NW 15 16.09 Overcast OVC019 0 -3.9 75% -4 76.53 1021.2
03 17:56 W 19 16.09 Mostly Cloudy BKN017 0.6 -3.3 75% -4 76.53 1021.3
03 16:56 W 15 16.09 Overcast OVC021 0.6 -3.3 75% -3 76.56 1021.8
03 15:56 W 17 16.09 Overcast OVC021 0.6 -3.9 1.7 -2.8 72% -4 76.58 1022.0
03 14:56 W 11 16.09 Overcast OVC023 0 -4.4 73% -3 76.58 1021.9
03 13:56 SW 11 16.09 Overcast OVC021 -0.6 -4.4 76% -4 76.58 1022.0
03 12:56 E 7 16.09 Mostly Cloudy BKN019 1.1 -5.6 61% -1 76.58 1022.1
03 11:56 NW 11 16.09 Overcast OVC017 -1.7 -5.6 75% -5 76.58 1022.2
03 10:56 NW 7 16.09 Overcast OVC015 -2.2 -6.1 75% -5 76.58 1022.2
03 09:56 NW 6 16.09 Overcast OVC015 -2.8 -6.1 -2.8 -3.3 78% 76.58 1022.0
03 08:56 NW 6 16.09 Overcast OVC015 -2.8 -6.1 78% 76.56 1021.6
03 07:56 N 11 16.09 Overcast OVC015 -3.3 -6.1 81% -7 76.53 1021.3
03 06:56 N 11 16.09 Overcast OVC015 -3.3 -6.1 81% -7 76.5 1021.0
03 05:56 NW 13 16.09 Overcast OVC015 -3.3 -6.1 81% -8 76.48 1020.7
03 04:56 NW 11 16.09 Overcast OVC013 -3.3 -5.6 84% -7 76.45 1020.5
03 03:56 NW 11 16.09 Overcast OVC013 -3.3 -5.6 -3.3 -3.9 84% -7 76.45 1020.2
03 02:56 NW 11 16.09 Overcast OVC013 -3.3 -5.6 84% -7 76.43 1019.9
03 01:56 NW 15 16.09 Overcast OVC013 -3.3 -5.6 84% -8 76.38 1019.3
03 00:56 NW 17 16.09 Overcast OVC011 -3.9 -5.6 88% -9 76.33 1018.6
02 23:56 NW 22 16.09 Overcast OVC011 -3.9 -5.6 88% -10 76.28 1017.8
02 22:56 NW 20 16.09 Overcast OVC013 -3.3 -6.1 81% -9 76.2 1017.0
02 21:56 NW 20 16.09 Overcast OVC015 -3.3 -5.6 1.1 -3.3 84% -9 76.15 1016.2
02 20:56 NW 26 16.09 Overcast OVC015 -2.8 -5.6 81% -9 76.1 1015.3
02 19:56 W 20 16.09 Overcast OVC017 -2.2 -5 81% -8 76.02 1014.7
02 18:56 W 24 G 33 16.09 Overcast OVC017 -1.7 -5 78% -8 75.95 1013.6
02 17:56 W 26 16.09 Overcast OVC017 -1.1 -4.4 79% -7 75.9 1012.8
02 16:56 W 24 16.09 Overcast BKN015 OVC031 0.6 -3.3 75% -5 75.82 1011.8
02 15:56 W 20 16.09 Overcast OVC012 0.6 -2.2 1.1 -1.1 82% -4 75.74 1010.8 0.03
02 14:56 W 22 11.27 Light Snow BKN010 OVC015 0.6 -1.7 85% -4 75.69 1010.0
02 13:56 NW 13 16.09 Unknown Precip OVC013 0.6 -2.2 82% -3 75.62 1009.1
02 12:56 NW 19 8.05 Light Snow Fog/Mist FEW006 BKN011 OVC016 0 -1.1 92% -5 75.54 1008.0 0.03
02 11:56 NW 20 2.82 Light Snow Fog/Mist BKN005 OVC010 -0.6 -0.6 100% -6 75.44 1006.8 0.03
02 10:56 NW 17 6.44 Light Snow Fog/Mist BKN006 BKN011 OVC028 -0.6 -0.6 100% -5 75.36 1005.5
02 09:56 NW 19 2.41 Light Snow Fog/Mist OVC004 -0.6 -0.6 1.1 -1.1 100% -5 75.26 1004.1 0.03 0.18
02 08:56 NW 19 3.22 Light Snow Fog/Mist BKN004 OVC024 -1.1 -1.1 100% -6 75.16 1003.0 0.05
02 07:56 NW 13 6.44 Light Snow Fog/Mist OVC004 -0.6 -0.6 100% -4 75.08 1001.8
02 06:56 W 11 0.40 Light Snow Fog BKN004 OVC008 0 0 100% -3 75.01 1000.7 0.03 0.1
02 05:56 SW 9 0.80 Light Snow Fog OVC006 0 0 100% -3 74.93 999.8 0.03
02 04:56 SW 9 0.80 Light Rain Fog BKN004 OVC014 0.6 0.6 100% -2 74.85 998.8 0.05
02 03:56 SW 13 0.80 Light Rain Fog BKN004 OVC014 1.1 1.1 5 1.1 100% -2 74.8 997.9 0.03 0.08
02 02:56 S 11 1.21 Unknown Precip Fog/Mist SCT006 OVC011 1.7 1.7 100% -1 74.73 997.0 0.03
02 01:56 SW 7 3.22 Unknown Precip Fog/Mist FEW003 SCT021 OVC030 2.8 2.8 100% 1 74.65 996.0
02 00:56 SW 7 6.44 Light Rain Fog/Mist BKN010 OVC014 3.3 3.3 100% 2 74.6 995.2 0.03
01 23:56 W 6 16.09 Light Rain SCT026 BKN037 OVC050 3 0 0% 74.52 994.3
01 22:56 SW 6 16.09 Light Rain SCT009 OVC013 3.9 3.9 100% 74.47 993.5 0.03
01 21:56 Calm 16.09 Light Rain FEW036 OVC047 4.4 2.8 6.7 4.4 89% 74.4 992.6
01 20:56 SW 7 16.09 Overcast BKN028 BKN034 OVC055 5 2.2 82% 4 74.35 992.0
01 19:56 Calm 16.09 Light Rain FEW015 SCT030 OVC060 6.1 2.2 76% 74.3 991.4
01 18:56 E 7 16.09 Light Rain SCT032 OVC070 6.1 2.2 76% 5 74.3 991.1
01 17:56 SE 9 16.09 Light Rain OVC035 5.6 1.7 76% 4 74.27 990.9
01 16:56 Vrbl 9 16.09 Light Rain BKN017 OVC026 6.1 2.2 76% 4 74.27 991.0
01 15:56 E 11 16.09 Light Rain SCT017 OVC022 6.1 2.2 6.1 3.3 76% 4 74.24 990.7
Date Time (akdt) Wind (kph) Vis. (km) Weather Sky Cond. Air Dwpt Max. Min. Relative Humidity Wind Chill (°C) Heat Index (°C) altimeter (cm) sea level (mb) 1 hr 3 hr 6 hr
6 hour
Temperature (ºC) Pressure Precipitation (cm)